Time;durP1;ratioP1;P1;durP2;ratioP2;P2;SDS_P1;SDS_P2;PMS_P1;PMS_P2;Temp;Humidity;BMP_temperature;BMP_pressure;BME280_temperature;BME280_humidity;BME280_pressure;Samples;Min_cycle;Max_cycle;Signal;HPM_P1;HPM_P2
2023/01/02 00:00:57;;;;;;;20.38;12.38;;;;;;;-143.57;100.00;51318.88;5102541;27;20105;-64
2023/01/02 00:03:24;;;;;;;23.85;13.60;;;;;;;-143.57;100.00;51318.88;5100479;28;20043;-64
2023/01/02 00:05:51;;;;;;;22.83;12.18;;;;;;;-143.57;100.00;51318.88;5098525;28;20062;-65
2023/01/02 00:08:19;;;;;;;23.77;12.88;;;;;;;-143.57;100.00;51322.88;5097809;28;20097;-67
2023/01/02 00:10:46;;;;;;;25.05;13.82;;;;;;;-143.57;100.00;51318.88;5104366;28;20058;-64
2023/01/02 00:13:13;;;;;;;23.13;14.05;;;;;;;-143.57;100.00;51326.84;5112752;28;20107;-65
2023/01/02 00:15:39;;;;;;;21.02;12.60;;;;;;;-143.57;100.00;51310.94;5100936;27;20455;-64
2023/01/02 00:18:06;;;;;;;20.60;11.98;;;;;;;-143.57;100.00;51310.94;5101861;28;20047;-65
2023/01/02 00:20:33;;;;;;;20.88;12.25;;;;;;;-143.57;100.00;51310.94;5098259;28;20047;-64
2023/01/02 00:23:00;;;;;;;23.92;12.43;;;;;;;-143.57;100.00;51336.78;5103972;28;20047;-65
2023/01/02 00:25:28;;;;;;;23.38;12.90;;;;;;;-143.57;100.00;51303.00;5096114;28;20051;-64
2023/01/02 00:27:55;;;;;;;21.73;13.77;;;;;;;-143.57;100.00;51299.00;5100744;27;20045;-65
2023/01/02 00:30:22;;;;;;;27.63;15.38;;;;;;;-143.57;100.00;51306.97;5107022;27;20055;-64
2023/01/02 00:32:49;;;;;;;33.83;19.27;;;;;;;-143.57;100.00;51306.97;5112634;27;20049;-64
2023/01/02 00:35:15;;;;;;;36.88;21.08;;;;;;;-143.57;100.00;51320.88;5112540;27;20059;-64
2023/01/02 00:37:42;;;;;;;33.10;19.63;;;;;;;-143.57;100.00;51318.88;5104627;27;20040;-65
2023/01/02 00:40:12;;;;;;;25.75;15.73;;;;;;;-143.57;100.00;51326.84;5107441;27;20047;-64
2023/01/02 00:42:40;;;;;;;25.42;13.60;;;;;;;-143.57;100.00;51303.00;5104442;27;20767;-65
2023/01/02 00:45:09;;;;;;;21.60;12.30;;;;;;;-143.57;100.00;51314.91;5103872;27;20043;-65
2023/01/02 00:47:35;;;;;;;25.85;15.18;;;;;;;-143.57;100.00;51314.91;5101497;27;20047;-65
2023/01/02 00:50:04;;;;;;;22.13;12.38;;;;;;;-143.57;100.00;51279.13;5105573;27;20596;-65
2023/01/02 00:52:30;;;;;;;24.55;14.43;;;;;;;-143.57;100.00;51322.88;5103457;27;20086;-65
2023/01/02 00:54:57;;;;;;;28.88;15.27;;;;;;;-143.57;100.00;51322.88;5106573;27;20047;-65
2023/01/02 00:57:24;;;;;;;21.38;13.55;;;;;;;-143.57;100.00;51324.84;5104173;27;20131;-65
2023/01/02 00:59:51;;;;;;;23.05;12.50;;;;;;;-143.57;100.00;51314.91;5107832;27;20533;-65
2023/01/02 01:02:18;;;;;;;21.48;12.27;;;;;;;-143.57;100.00;51285.09;5109173;27;20043;-65
2023/01/02 01:04:45;;;;;;;18.52;11.10;;;;;;;-143.57;100.00;51289.06;5101839;27;20066;-65
2023/01/02 01:07:11;;;;;;;19.80;11.95;;;;;;;-143.57;100.00;51275.16;5115601;27;20104;-65
2023/01/02 01:09:38;;;;;;;18.73;10.07;;;;;;;-143.57;100.00;51271.19;5102400;27;20097;-65
2023/01/02 01:12:05;;;;;;;22.00;12.95;;;;;;;-143.57;100.00;51346.72;5101111;27;20867;-65
2023/01/02 01:14:32;;;;;;;22.88;12.70;;;;;;;-143.57;100.00;51299.00;5113413;27;20051;-64
2023/01/02 01:16:59;;;;;;;20.73;11.65;;;;;;;-143.57;100.00;51299.00;5109872;27;20036;-64
2023/01/02 01:19:33;;;;;;;21.95;12.32;;;;;;;-143.57;100.00;51287.09;5104713;27;20047;-65
2023/01/02 01:22:00;;;;;;;16.45;10.30;;;;;;;-143.57;100.00;51318.88;5113625;27;20124;-65
2023/01/02 01:24:27;;;;;;;20.42;12.25;;;;;;;-143.57;100.00;51306.97;5102351;27;20043;-65
2023/01/02 01:26:54;;;;;;;21.17;11.57;;;;;;;-143.57;100.00;51295.03;5109265;27;20043;-65
2023/01/02 01:29:20;;;;;;;18.13;12.73;;;;;;;-143.57;100.00;51314.91;5106200;27;20039;-65
2023/01/02 01:31:47;;;;;;;20.75;10.82;;;;;;;-143.57;100.00;51259.25;5103651;27;20050;-64
2023/01/02 01:34:14;;;;;;;20.77;12.57;;;;;;;-143.57;100.00;51303.00;5110924;27;20034;-64
2023/01/02 01:36:41;;;;;;;17.95;11.20;;;;;;;-143.57;100.00;51310.94;5104829;27;20587;-64
2023/01/02 01:39:08;;;;;;;22.33;11.63;;;;;;;-143.57;100.00;51330.81;5106027;27;20073;-65
2023/01/02 01:41:34;;;;;;;23.10;11.90;;;;;;;-143.57;100.00;51279.13;5105735;27;20043;-64
2023/01/02 01:44:40;;;;;;;18.85;12.57;;;;;;;-143.57;100.00;51306.97;5104690;27;20040;-64
2023/01/02 01:47:19;;;;;;;26.90;12.75;;;;;;;-143.57;100.00;51304.97;5098784;27;20039;-63
2023/01/02 01:49:48;;;;;;;21.30;13.43;;;;;;;-143.57;100.00;51314.91;5101365;28;20042;-63
2023/01/02 01:52:22;;;;;;;22.80;13.10;;;;;;;-143.57;100.00;51299.00;5098387;27;20135;-64
2023/01/02 01:55:06;;;;;;;26.67;15.20;;;;;;;-143.57;100.00;51314.91;5104077;27;20078;-63
2023/01/02 01:57:38;;;;;;;22.90;13.23;;;;;;;-143.57;100.00;51271.19;5098556;28;20134;-63
2023/01/02 02:00:07;;;;;;;24.83;14.40;;;;;;;-143.57;100.00;51283.09;5109716;27;20039;-63
2023/01/02 02:02:36;;;;;;;23.70;12.52;;;;;;;-143.57;100.00;51330.81;5100392;27;20046;-63
2023/01/02 02:05:05;;;;;;;19.13;12.13;;;;;;;-143.57;100.00;51299.00;5100197;27;20084;-63
2023/01/02 02:07:36;;;;;;;25.63;14.45;;;;;;;-143.57;100.00;51314.91;5105464;27;20043;-63
2023/01/02 02:10:07;;;;;;;23.05;14.07;;;;;;;-143.57;100.00;51291.06;5108876;27;20573;-63
2023/01/02 02:12:34;;;;;;;23.83;13.77;;;;;;;-143.57;100.00;51291.06;5103267;27;20795;-63
2023/01/02 02:15:01;;;;;;;28.63;14.63;;;;;;;-143.57;100.00;51322.88;5112382;27;20036;-64
2023/01/02 02:17:56;;;;;;;29.42;14.90;;;;;;;-143.57;100.00;51306.97;5097607;27;20035;-63
2023/01/02 02:20:29;;;;;;;26.38;15.02;;;;;;;-143.57;100.00;51285.09;5102301;27;20063;-64
2023/01/02 02:23:16;;;;;;;30.33;17.15;;;;;;;-143.57;100.00;51291.06;5097950;27;20712;-63
2023/01/02 02:26:00;;;;;;;27.77;15.88;;;;;;;-143.57;100.00;51338.78;5104931;27;20059;-63
2023/01/02 02:28:55;;;;;;;29.77;14.80;;;;;;;-143.57;100.00;51295.03;5101752;27;20039;-64
2023/01/02 02:31:42;;;;;;;27.23;16.15;;;;;;;-143.57;100.00;51293.03;5102396;27;20773;-64
2023/01/02 02:34:47;;;;;;;28.83;15.63;;;;;;;-143.57;100.00;51310.94;5103235;27;20079;-64
2023/01/02 02:37:31;;;;;;;44.97;18.13;;;;;;;-143.57;100.00;51279.13;5106270;27;20700;-63
2023/01/02 02:40:23;;;;;;;42.90;19.40;;;;;;;-143.57;100.00;51291.06;5105232;27;20505;-64
2023/01/02 02:43:30;;;;;;;48.03;20.85;;;;;;;-143.57;100.00;51283.09;5102511;27;20035;-64
2023/01/02 02:46:21;;;;;;;52.03;20.92;;;;;;;-143.57;100.00;51318.88;5101810;27;20145;-64
2023/01/02 02:49:00;;;;;;;47.85;19.85;;;;;;;-143.57;100.00;51283.09;5102990;27;20048;-64
2023/01/02 02:51:29;;;;;;;62.92;17.65;;;;;;;-143.57;100.00;51275.16;5105649;27;20039;-64
2023/01/02 02:54:04;;;;;;;61.10;18.45;;;;;;;-143.57;100.00;51304.97;5104218;27;20134;-64
2023/01/02 02:56:31;;;;;;;56.53;20.77;;;;;;;-143.57;100.00;51322.88;5099227;27;20036;-63
2023/01/02 02:58:58;;;;;;;55.42;17.65;;;;;;;-143.57;100.00;51263.22;5100815;27;20031;-63
2023/01/02 03:01:27;;;;;;;47.95;19.60;;;;;;;-143.57;100.00;51279.13;5097690;27;20059;-64
2023/01/02 03:03:58;;;;;;;55.45;19.33;;;;;;;-143.57;100.00;51310.94;5104068;27;20047;-63
2023/01/02 03:06:56;;;;;;;34.55;16.75;;;;;;;-143.57;100.00;51301.00;5105694;27;20128;-63
2023/01/02 03:09:34;;;;;;;33.50;16.60;;;;;;;-143.57;100.00;51301.00;5105142;27;20092;-63
2023/01/02 03:12:01;;;;;;;38.92;18.90;;;;;;;-143.57;100.00;51299.00;5101907;27;20040;-63
2023/01/02 03:14:52;;;;;;;45.83;19.65;;;;;;;-143.57;100.00;51312.94;5098741;28;20678;-63
2023/01/02 03:17:31;;;;;;;42.40;17.52;;;;;;;-143.57;100.00;51281.13;5097397;28;20043;-64
2023/01/02 03:20:06;;;;;;;24.70;14.27;;;;;;;-143.57;100.00;51322.88;5105706;27;20031;-64
2023/01/02 03:22:37;;;;;;;32.63;17.65;;;;;;;-143.57;100.00;51306.97;5101159;27;20047;-64
2023/01/02 03:25:06;;;;;;;29.77;16.35;;;;;;;-143.57;100.00;51303.00;5108036;27;20039;-63
2023/01/02 03:27:36;;;;;;;30.05;17.13;;;;;;;-143.57;100.00;51306.97;5097139;28;20675;-63
2023/01/02 03:30:07;;;;;;;30.60;16.63;;;;;;;-143.57;100.00;51299.00;5103596;27;20043;-64
2023/01/02 03:32:43;;;;;;;32.20;18.30;;;;;;;-143.57;100.00;51310.94;5096747;27;20048;-64
2023/01/02 03:35:14;;;;;;;45.13;18.95;;;;;;;-143.57;100.00;51306.97;5097131;28;21222;-64
2023/01/02 03:37:47;;;;;;;46.63;20.73;;;;;;;-143.57;100.00;51275.16;5100566;27;20040;-63
2023/01/02 03:40:30;;;;;;;44.63;20.45;;;;;;;-143.57;100.00;51239.38;5104321;28;20044;-65
2023/01/02 03:43:02;;;;;;;46.25;19.20;;;;;;;-143.57;100.00;51303.00;5105363;27;20585;-65
2023/01/02 03:45:39;;;;;;;43.33;20.27;;;;;;;-143.57;100.00;51306.97;5109072;27;20114;-65
2023/01/02 03:48:47;;;;;;;32.88;17.95;;;;;;;-143.57;100.00;51291.06;5096922;28;20053;-65
2023/01/02 03:51:13;;;;;;;34.97;18.02;;;;;;;-143.57;100.00;51285.09;5099773;28;20055;-65
2023/01/02 03:53:40;;;;;;;45.42;19.77;;;;;;;-143.57;100.00;51291.06;5095227;28;20047;-65
2023/01/02 03:56:23;;;;;;;42.17;22.08;;;;;;;-143.57;100.00;51326.84;5101700;28;20062;-65
2023/01/02 03:58:57;;;;;;;38.33;19.77;;;;;;;-143.57;100.00;51312.94;5105316;28;20544;-65
2023/01/02 04:01:40;;;;;;;43.42;23.20;;;;;;;-143.57;100.00;51303.00;5102536;27;20437;-65
2023/01/02 04:04:38;;;;;;;39.47;19.00;;;;;;;-143.57;100.00;51297.03;5102645;27;20115;-64
2023/01/02 04:07:13;;;;;;;40.88;19.63;;;;;;;-143.57;100.00;51314.91;5102531;28;20634;-65
2023/01/02 04:09:43;;;;;;;40.03;19.60;;;;;;;-143.57;100.00;51310.94;5100916;27;20044;-65
2023/01/02 04:12:16;;;;;;;43.22;19.92;;;;;;;-143.57;100.00;51287.09;5103535;27;20073;-64
2023/01/02 04:14:47;;;;;;;43.28;19.38;;;;;;;-143.57;100.00;51326.84;5101382;27;20580;-64
2023/01/02 04:17:17;;;;;;;50.63;21.13;;;;;;;-143.57;100.00;51271.19;5103237;27;20067;-64
2023/01/02 04:19:50;;;;;;;55.35;21.83;;;;;;;-143.57;100.00;51314.91;5103580;27;20047;-64
2023/01/02 04:22:26;;;;;;;53.13;25.83;;;;;;;-143.57;100.00;51291.06;5108568;27;20050;-64
2023/01/02 04:24:56;;;;;;;47.70;21.42;;;;;;;-143.57;100.00;51303.00;5101420;27;20039;-68
2023/01/02 04:27:28;;;;;;;52.15;27.25;;;;;;;-143.57;100.00;51293.03;5103225;27;20116;-65
2023/01/02 04:29:55;;;;;;;49.63;23.65;;;;;;;-143.57;100.00;51295.03;5102314;27;20044;-65
2023/01/02 04:32:28;;;;;;;45.45;23.45;;;;;;;-143.57;100.00;51303.00;5105208;27;20076;-64
2023/01/02 04:34:57;;;;;;;55.03;24.67;;;;;;;-143.57;100.00;51279.13;5104630;27;20052;-64
2023/01/02 04:37:32;;;;;;;45.22;24.33;;;;;;;-143.57;100.00;51312.94;5107058;27;20268;-65
2023/01/02 04:40:03;;;;;;;43.40;21.58;;;;;;;-143.57;100.00;51303.00;5112753;27;20043;-64
2023/01/02 04:42:30;;;;;;;45.80;22.60;;;;;;;-143.57;100.00;51285.09;5104131;27;20513;-64
2023/01/02 04:44:56;;;;;;;51.05;24.98;;;;;;;-143.57;100.00;51330.81;5109134;27;20039;-65
2023/01/02 04:47:23;;;;;;;55.13;27.10;;;;;;;-143.57;100.00;51303.00;5101802;27;20035;-64
2023/01/02 04:49:50;;;;;;;51.15;22.77;;;;;;;-143.57;100.00;51322.88;5104155;27;20038;-64
2023/01/02 04:52:17;;;;;;;57.13;22.08;;;;;;;-143.57;100.00;51322.88;5100136;27;20050;-64
2023/01/02 04:54:44;;;;;;;83.38;33.85;;;;;;;-143.57;100.00;51334.78;5106248;27;20055;-65
2023/01/02 04:57:13;;;;;;;95.07;38.78;;;;;;;-143.57;100.00;51303.00;5106719;27;20036;-64
2023/01/02 05:04:30;;;;;;;64.20;28.52;;;;;;;-143.57;100.00;51279.13;5114467;27;20050;-65
2023/01/02 05:06:57;;;;;;;70.75;29.30;;;;;;;-143.57;100.00;51318.88;5110601;27;20051;-64
2023/01/02 05:09:24;;;;;;;64.72;26.50;;;;;;;-143.57;100.00;51299.00;5100558;28;20035;-65
2023/01/02 05:11:50;;;;;;;70.22;29.13;;;;;;;-143.57;100.00;51362.63;5114933;27;20524;-64
2023/01/02 05:14:18;;;;;;;62.78;24.58;;;;;;;-143.57;100.00;51303.00;5114652;27;20201;-64
2023/01/02 05:16:46;;;;;;;51.25;23.65;;;;;;;-143.57;100.00;51338.78;5103226;27;20134;-65
2023/01/02 05:19:13;;;;;;;68.60;25.35;;;;;;;-143.57;100.00;51297.03;5101208;27;20097;-64
2023/01/02 05:24:26;;;;;;;52.50;22.40;;;;;;;-143.57;100.00;51312.94;5101774;27;20048;-65
2023/01/02 05:26:53;;;;;;;66.28;24.20;;;;;;;-143.57;100.00;51312.94;5107850;27;20047;-64
2023/01/02 05:29:20;;;;;;;55.10;20.55;;;;;;;-143.57;100.00;51318.88;5100726;27;20032;-64
2023/01/02 05:31:47;;;;;;;46.28;19.98;;;;;;;-143.57;100.00;51281.13;5101212;27;20119;-65
2023/01/02 05:34:15;;;;;;;48.60;19.98;;;;;;;-143.57;100.00;51310.94;5100871;27;20059;-65
2023/01/02 05:36:42;;;;;;;42.50;18.58;;;;;;;-143.57;100.00;51303.00;5104846;27;20047;-65
2023/01/02 05:39:13;;;;;;;43.17;19.40;;;;;;;-143.57;100.00;51287.09;5105038;27;20464;-65
2023/01/02 05:41:40;;;;;;;37.38;19.25;;;;;;;-143.57;100.00;51304.97;5101348;28;20748;-65
2023/01/02 05:44:09;;;;;;;45.95;20.42;;;;;;;-143.57;100.00;51304.97;5102263;27;20050;-65
2023/01/02 05:46:37;;;;;;;46.00;19.85;;;;;;;-143.57;100.00;51310.94;5097448;27;20051;-65
2023/01/02 05:49:08;;;;;;;;;;;;;;;-143.57;100.00;51277.16;5108278;27;20043;-63
2023/01/02 05:51:35;;;;;;;40.95;18.85;;;;;;;-143.57;100.00;51342.75;5099243;27;19972;-63
2023/01/02 05:54:03;;;;;;;48.05;20.48;;;;;;;-143.57;100.00;51326.84;5101412;27;20044;-63
2023/01/02 05:56:30;;;;;;;52.22;19.83;;;;;;;-143.57;100.00;51314.91;5098660;27;20042;-63
2023/01/02 05:58:57;;;;;;;50.78;22.30;;;;;;;-143.57;100.00;51322.88;5105649;27;20720;-63
2023/01/02 06:01:28;;;;;;;52.70;23.77;;;;;;;-143.57;100.00;51330.81;5097776;27;20042;-63
2023/01/02 06:03:57;;;;;;;36.95;19.13;;;;;;;-143.57;100.00;51263.22;5096753;27;20048;-63
2023/01/02 06:06:34;;;;;;;;;;;;;;;-143.57;100.00;51328.81;5098963;27;20124;-63
2023/01/02 06:09:03;;;;;;;42.83;19.98;;;;;;;-143.57;100.00;51263.22;5102118;27;19923;-63
2023/01/02 06:11:30;;;;;;;43.53;21.05;;;;;;;-143.57;100.00;51306.97;5109183;27;20076;-63
2023/01/02 06:13:57;;;;;;;46.03;20.95;;;;;;;-143.57;100.00;51303.00;5099048;27;20044;-63
2023/01/02 06:16:24;;;;;;;52.28;25.55;;;;;;;-143.57;100.00;51326.84;5102813;27;20047;-63
2023/01/02 06:18:52;;;;;;;64.55;27.65;;;;;;;-143.57;100.00;51314.91;5094771;28;20043;-63
2023/01/02 06:21:20;;;;;;;62.75;27.67;;;;;;;-143.57;100.00;51289.06;5098016;27;20071;-64
2023/01/02 06:23:52;;;;;;;66.55;29.13;;;;;;;-143.57;100.00;51318.88;5101320;27;20108;-64
2023/01/02 06:26:19;;;;;;;43.58;22.48;;;;;;;-143.57;100.00;51279.13;5106799;27;20071;-64
2023/01/02 06:28:50;;;;;;;39.47;20.80;;;;;;;-143.57;100.00;51295.03;5102748;27;20130;-64
2023/01/02 06:31:18;;;;;;;44.38;21.38;;;;;;;-143.57;100.00;51310.94;5103341;27;20859;-64
2023/01/02 06:33:45;;;;;;;37.13;17.75;;;;;;;-143.57;100.00;51354.66;5109310;27;20471;-65
2023/01/02 06:36:15;;;;;;;40.13;18.58;;;;;;;-143.57;100.00;51340.75;5107960;27;20047;-65
2023/01/02 06:38:42;;;;;;;77.15;34.35;;;;;;;-143.57;100.00;51330.81;5102640;27;20124;-65
2023/01/02 06:41:09;;;;;;;43.97;21.58;;;;;;;-143.57;100.00;51295.03;5105400;27;20118;-65
2023/01/02 06:43:44;;;;;;;62.90;30.45;;;;;;;-143.57;100.00;51318.88;5108146;27;20055;-65
2023/01/02 06:46:15;;;;;;;46.38;25.63;;;;;;;-143.57;100.00;51303.00;5112107;27;20047;-65
2023/01/02 06:48:42;;;;;;;42.28;24.75;;;;;;;-143.57;100.00;51303.00;5117120;27;20043;-65
2023/01/02 06:51:15;;;;;;;51.50;26.83;;;;;;;-143.57;100.00;51330.81;5103310;27;21228;-65
2023/01/02 06:53:43;;;;;;;46.92;24.83;;;;;;;-143.57;100.00;51342.75;5098532;27;20799;-65
2023/01/02 06:56:42;;;;;;;62.83;29.63;;;;;;;-143.57;100.00;51283.09;5100617;27;20051;-63
2023/01/02 06:59:09;;;;;;;63.67;29.98;;;;;;;-143.57;100.00;51289.06;5100926;27;20044;-65
2023/01/02 07:01:36;;;;;;;44.72;26.95;;;;;;;-143.57;100.00;51342.75;5098013;27;20682;-64
2023/01/02 07:04:03;;;;;;;49.30;25.58;;;;;;;-143.57;100.00;51303.00;5100920;27;20492;-64
2023/01/02 07:06:29;;;;;;;54.50;23.65;;;;;;;-143.57;100.00;51291.06;5096564;27;20039;-64
2023/01/02 07:08:56;;;;;;;43.03;23.67;;;;;;;-143.57;100.00;51306.97;5103927;27;20070;-64
2023/01/02 07:11:24;;;;;;;51.33;23.70;;;;;;;-143.57;100.00;51314.91;5097452;27;20040;-64
2023/01/02 07:13:52;;;;;;;36.83;18.73;;;;;;;-143.57;100.00;51283.09;5103034;27;20066;-64
2023/01/02 07:16:20;;;;;;;;;;;;;;;-143.57;100.00;51299.00;5094310;27;20040;-65
2023/01/02 07:18:48;;;;;;;37.78;18.75;;;;;;;-143.57;100.00;51310.94;5097981;27;19930;-64
2023/01/02 07:21:16;;;;;;;26.92;14.05;;;;;;;-143.57;100.00;51334.78;5094058;27;20054;-64
2023/01/02 07:23:44;;;;;;;37.35;21.23;;;;;;;-143.57;100.00;51299.00;5101986;27;20055;-64
2023/01/02 07:26:11;;;;;;;48.05;19.13;;;;;;;-143.57;100.00;51328.81;5099687;27;20047;-64
2023/01/02 07:28:39;;;;;;;41.92;17.85;;;;;;;-143.57;100.00;51303.00;5101733;27;20513;-64
2023/01/02 07:31:17;;;;;;;61.75;22.60;;;;;;;-143.57;100.00;51314.91;5097387;28;20155;-64
2023/01/02 07:33:44;;;;;;;44.90;18.02;;;;;;;-143.57;100.00;51303.00;5096624;27;20079;-64
2023/01/02 07:36:17;;;;;;;48.17;21.23;;;;;;;-143.57;100.00;51263.22;5101076;27;20047;-64
2023/01/02 07:38:48;;;;;;;47.80;18.70;;;;;;;-143.57;100.00;51314.91;5095659;27;20624;-63
2023/01/02 07:41:16;;;;;;;44.97;22.73;;;;;;;-143.57;100.00;51295.03;5110625;27;20043;-64
2023/01/02 07:43:44;;;;;;;55.45;25.40;;;;;;;-143.57;100.00;51338.78;5098641;28;20618;-64
2023/01/02 07:46:13;;;;;;;56.03;20.38;;;;;;;-143.57;100.00;51299.00;5102399;28;20070;-63
2023/01/02 07:48:40;;;;;;;56.15;24.38;;;;;;;-143.57;100.00;51289.06;5096731;27;20044;-63
2023/01/02 07:51:07;;;;;;;55.70;21.55;;;;;;;-143.57;100.00;51310.94;5106929;27;20839;-63
2023/01/02 07:53:35;;;;;;;49.88;27.38;;;;;;;-143.57;100.00;51303.00;5096114;28;20706;-63
2023/01/02 07:56:02;;;;;;;59.75;29.10;;;;;;;-143.57;100.00;51306.97;5101802;28;20043;-64
2023/01/02 07:58:30;;;;;;;55.75;29.83;;;;;;;-143.57;100.00;51334.78;5099267;28;20051;-64
2023/01/02 08:00:58;;;;;;;67.53;38.95;;;;;;;-143.57;100.00;51326.84;5093989;28;20618;-64
2023/01/02 08:03:31;;;;;;;75.63;34.70;;;;;;;-143.57;100.00;51342.75;5105526;28;20039;-64
2023/01/02 08:06:06;;;;;;;83.18;45.38;;;;;;;-143.57;100.00;51299.00;5108044;28;20042;-64
2023/01/02 08:08:34;;;;;;;80.53;37.85;;;;;;;-143.57;100.00;51303.00;5107605;27;20726;-64
2023/01/02 08:11:13;;;;;;;78.45;37.83;;;;;;;-143.57;100.00;51295.03;5101978;28;20035;-64
2023/01/02 08:13:40;;;;;;;63.78;30.92;;;;;;;-143.57;100.00;51330.81;5100952;28;20561;-64
2023/01/02 08:16:09;;;;;;;80.80;35.78;;;;;;;-143.57;100.00;51320.88;5100109;28;20050;-63
2023/01/02 08:18:36;;;;;;;82.00;38.35;;;;;;;-143.57;100.00;51314.91;5102309;28;20046;-64
2023/01/02 08:21:03;;;;;;;88.40;39.85;;;;;;;-143.57;100.00;51314.91;5108675;28;20748;-64
2023/01/02 08:23:30;;;;;;;98.75;46.08;;;;;;;-143.57;100.00;51358.66;5101925;27;20036;-64
2023/01/02 08:26:03;;;;;;;86.35;46.42;;;;;;;-143.57;100.00;51340.75;5097997;28;20043;-62
2023/01/02 08:28:30;;;;;;;65.75;35.35;;;;;;;-143.57;100.00;51318.88;5099145;28;20071;-63
2023/01/02 08:30:58;;;;;;;75.82;44.67;;;;;;;-143.57;100.00;51326.84;5097471;28;20116;-63
2023/01/02 08:33:26;;;;;;;82.75;44.50;;;;;;;-143.57;100.00;51326.84;5102811;28;20080;-63
2023/01/02 08:35:54;;;;;;;84.82;49.92;;;;;;;-143.57;100.00;51318.88;5104016;27;20709;-63
2023/01/02 08:38:21;;;;;;;71.32;41.88;;;;;;;-143.57;100.00;51328.81;5099234;28;20035;-63
2023/01/02 08:40:48;;;;;;;69.63;39.17;;;;;;;-143.57;100.00;51312.94;5110285;28;20116;-63
2023/01/02 08:43:14;;;;;;;66.63;35.72;;;;;;;-143.57;100.00;51279.13;5095263;28;20104;-63
2023/01/02 08:45:42;;;;;;;85.13;43.17;;;;;;;-143.57;100.00;51303.00;5100588;28;20040;-63
2023/01/02 08:48:08;;;;;;;71.65;44.85;;;;;;;-143.57;100.00;51299.00;5100650;27;20050;-63
2023/01/02 08:50:48;;;;;;;60.63;34.85;;;;;;;-143.57;100.00;51314.91;5099890;27;20040;-63
2023/01/02 08:53:16;;;;;;;71.20;39.88;;;;;;;-143.57;100.00;51318.88;5099126;27;20050;-63
2023/01/02 08:55:42;;;;;;;59.55;36.50;;;;;;;-143.57;100.00;51306.97;5105605;27;20071;-63
2023/01/02 08:58:09;;;;;;;57.60;34.22;;;;;;;-143.57;100.00;51334.78;5096978;27;20059;-63
2023/01/02 09:00:36;;;;;;;70.10;43.28;;;;;;;-143.57;100.00;51326.84;5102677;27;20734;-63
2023/01/02 09:03:03;;;;;;;56.78;34.78;;;;;;;-143.57;100.00;51299.00;5097373;27;20036;-63
2023/01/02 09:05:30;;;;;;;54.90;34.50;;;;;;;-143.57;100.00;51318.88;5097189;27;20437;-63
2023/01/02 09:07:57;;;;;;;52.08;31.48;;;;;;;-143.57;100.00;51352.69;5100097;27;20042;-63
2023/01/02 09:10:24;;;;;;;54.80;30.30;;;;;;;-143.57;100.00;51332.81;5103726;27;20147;-63
2023/01/02 09:12:51;;;;;;;52.58;30.90;;;;;;;-143.57;100.00;51358.66;5096679;27;20058;-63
2023/01/02 09:15:18;;;;;;;50.80;29.95;;;;;;;-143.57;100.00;51350.69;5102394;27;20035;-62
2023/01/02 09:17:45;;;;;;;46.03;27.92;;;;;;;-143.57;100.00;51324.84;5097739;27;20533;-62
2023/01/02 09:20:12;;;;;;;56.83;34.20;;;;;;;-143.57;100.00;51338.78;5096817;27;20148;-62
2023/01/02 09:22:39;;;;;;;53.00;28.05;;;;;;;-143.57;100.00;51318.88;5104873;27;20043;-62
2023/01/02 09:25:06;;;;;;;41.83;25.48;;;;;;;-143.57;100.00;51322.88;5098719;28;20040;-62
2023/01/02 09:27:33;;;;;;;47.50;29.45;;;;;;;-143.57;100.00;51308.94;5100579;27;20088;-61
2023/01/02 09:30:00;;;;;;;46.75;27.38;;;;;;;-143.57;100.00;51312.94;5099348;27;20043;-61
2023/01/02 09:32:27;;;;;;;48.38;29.67;;;;;;;-143.57;100.00;51322.88;5100054;27;20039;-62
2023/01/02 09:34:53;;;;;;;44.83;27.95;;;;;;;-143.57;100.00;51314.91;5096782;27;20123;-61
2023/01/02 09:37:20;;;;;;;40.33;23.95;;;;;;;-143.57;100.00;51314.91;5104681;27;20121;-61
2023/01/02 09:39:47;;;;;;;51.78;31.63;;;;;;;-143.57;100.00;51314.91;5099681;28;20514;-61
2023/01/02 09:42:16;;;;;;;58.38;36.47;;;;;;;-143.57;100.00;51352.69;5096845;27;20051;-61
2023/01/02 09:44:42;;;;;;;48.13;27.70;;;;;;;-143.57;100.00;51326.84;5105926;27;20884;-61
2023/01/02 09:47:09;;;;;;;43.20;29.80;;;;;;;-143.57;100.00;51310.94;5098138;27;20043;-61
2023/01/02 09:49:46;;;;;;;50.65;29.75;;;;;;;-143.57;100.00;51287.09;5107679;27;20047;-61
2023/01/02 09:52:20;;;;;;;50.47;31.25;;;;;;;-143.57;100.00;51324.84;5100278;27;20050;-61
2023/01/02 09:54:47;;;;;;;;;;;;;;;-143.57;100.00;51334.78;5101415;27;20757;-61
2023/01/02 09:57:27;;;;;;;42.97;27.92;;;;;;;-143.57;100.00;51291.06;5100246;28;19928;-61
2023/01/02 10:00:19;;;;;;;44.75;31.27;;;;;;;-143.57;100.00;51299.00;5098472;28;20047;-62
2023/01/02 10:03:11;;;;;;;39.13;27.48;;;;;;;-143.57;100.00;51326.84;5103812;27;20044;-61
2023/01/02 10:06:04;;;;;;;41.30;25.70;;;;;;;-143.57;100.00;51334.78;5109153;27;20047;-62
2023/01/02 10:09:15;;;;;;;45.05;27.92;;;;;;;-143.57;100.00;51330.81;5093746;28;20628;-62
2023/01/02 10:12:05;;;;;;;44.65;27.08;;;;;;;-143.57;100.00;51326.84;5100765;27;20116;-63
2023/01/02 10:14:40;;;;;;;83.50;44.55;;;;;;;-143.57;100.00;51352.69;5100535;27;20093;-60
2023/01/02 10:17:14;;;;;;;62.92;39.70;;;;;;;-143.57;100.00;51338.78;5099821;28;20564;-62
2023/01/02 10:19:54;;;;;;;53.15;32.83;;;;;;;-143.57;100.00;51303.00;5112220;27;20130;-61
2023/01/02 10:22:32;;;;;;;46.80;29.00;;;;;;;-143.57;100.00;51322.88;5101098;27;20046;-62
2023/01/02 10:25:01;;;;;;;44.25;29.63;;;;;;;-143.57;100.00;51338.78;5100406;27;20680;-61
2023/01/02 10:27:34;;;;;;;58.88;38.85;;;;;;;-143.57;100.00;51328.81;5112016;27;20035;-62
2023/01/02 10:30:08;;;;;;;51.72;32.22;;;;;;;-143.57;100.00;51301.00;5099314;27;20036;-62
2023/01/02 10:32:38;;;;;;;46.30;30.95;;;;;;;-143.57;100.00;51306.97;5105479;27;20093;-62
2023/01/02 10:35:05;;;;;;;42.42;26.85;;;;;;;-143.57;100.00;51322.88;5105201;27;20044;-62
2023/01/02 10:37:33;;;;;;;62.00;35.67;;;;;;;-143.57;100.00;51279.13;5104794;27;20078;-62
2023/01/02 10:40:00;;;;;;;39.17;26.92;;;;;;;-143.57;100.00;51342.75;5100575;27;20119;-64
2023/01/02 10:42:29;;;;;;;40.58;25.83;;;;;;;-143.57;100.00;51338.78;5109430;27;20748;-62
2023/01/02 10:44:56;;;;;;;46.47;32.75;;;;;;;-143.57;100.00;51306.97;5103175;27;20043;-62
2023/01/02 10:47:34;;;;;;;44.83;28.10;;;;;;;-143.57;100.00;51299.00;5101598;27;20048;-61
2023/01/02 10:50:04;;;;;;;47.80;31.02;;;;;;;-143.57;100.00;51316.91;5100079;27;20048;-61
2023/01/02 10:52:40;;;;;;;32.63;22.88;;;;;;;-143.57;100.00;51326.84;5102899;27;20039;-61
2023/01/02 10:55:07;;;;;;;52.38;33.63;;;;;;;-143.57;100.00;51328.81;5099073;27;20047;-61
2023/01/02 10:57:44;;;;;;;31.95;23.40;;;;;;;-143.57;100.00;51310.94;5104957;27;20039;-61
2023/01/02 11:00:16;;;;;;;29.92;19.52;;;;;;;-143.57;100.00;51279.13;5098109;27;20077;-61
2023/01/02 11:02:54;;;;;;;31.83;21.20;;;;;;;-143.57;100.00;51354.66;5106725;27;20031;-61
2023/01/02 11:05:26;;;;;;;30.85;19.45;;;;;;;-143.57;100.00;51310.94;5099964;27;20067;-61
2023/01/02 11:07:53;;;;;;;34.97;22.83;;;;;;;-143.57;100.00;51346.72;5102172;27;20055;-61
2023/01/02 11:10:38;;;;;;;29.13;19.20;;;;;;;-143.57;100.00;51334.78;5099901;27;20044;-62
2023/01/02 11:13:14;;;;;;;35.80;21.17;;;;;;;-143.57;100.00;51340.75;5097737;28;20043;-61
2023/01/02 11:15:55;;;;;;;30.23;21.10;;;;;;;-143.57;100.00;51283.09;5105575;27;20557;-63
2023/01/02 11:18:22;;;;;;;34.90;20.42;;;;;;;-143.57;100.00;51338.78;5096385;28;20112;-61
2023/01/02 11:20:52;;;;;;;31.08;20.77;;;;;;;-143.57;100.00;51293.03;5093058;27;20048;-62